Allison, North Carolina
Current Conditions -  °F | °C
As of 12:15 PM on Thursday 27 Nov 2014 (Local Time) from KDAN Reporting Station
Overcast Overcast  
Wind Chill: 42°   Ceiling: 1300
Heat Index: 44°   Visibility: 10mi
Dew Point: 39°   Wind: 5mph
Humidity: 82%   Direction: NA
Pressure: 30.07"   Gusts: NA
Location:  36.4355°N, 79.5464°W
Report Text: KDAN 271715Z AUTO VRB04KT 10SM FEW009 BKN013 OVC021 07/04 A3007 RMK AO2 T00670039
Loading
Personal Weather Stations






























Interactive Weather Map New forecast layout! Learn more

10-Day Weather Forecast

Advertisements
Track Severe Weather on mobile